Terminal Aerodrome Forecast
Issued by NWS Cleveland, OH

Home | Current Version | Previous Version | Graphics & Text | Print | Product List | Glossary On
Versions: 1 2 3 4 5 6 7 8 9 10 11 12 13 14 15 16 17
000
FTUS41 KCLE 262300
TAFYNG
TAF
KYNG 262336Z 2700/2724 33010KT 5SM -SHSN BKN025 OVC100
     FM270400 32004KT P6SM SCT025 BKN100
     FM270800 32004KT P6SM SCT025
     FM271400 27006KT P6SM SKC=

USA.gov is the U.S. government's official web portal to all federal, state and local government web resources and services.